sensor_id;sensor_type;location;lat;lon;timestamp;P1;durP1;ratioP1;P2;durP2;ratioP2
33740;SDS011;20065;48.380;10.892;2023-03-11T00:01:54;3.20;;;1.00;;
33740;SDS011;20065;48.380;10.892;2023-03-11T00:04:40;2.10;;;0.68;;
33740;SDS011;20065;48.380;10.892;2023-03-11T00:07:28;2.83;;;1.02;;
33740;SDS011;20065;48.380;10.892;2023-03-11T00:10:15;2.00;;;0.80;;
33740;SDS011;20065;48.380;10.892;2023-03-11T00:13:07;2.00;;;0.65;;
33740;SDS011;20065;48.380;10.892;2023-03-11T00:15:54;2.45;;;0.95;;
33740;SDS011;20065;48.380;10.892;2023-03-11T00:18:41;3.08;;;1.00;;
33740;SDS011;20065;48.380;10.892;2023-03-11T00:21:27;2.85;;;0.80;;
33740;SDS011;20065;48.380;10.892;2023-03-11T00:24:14;2.00;;;0.82;;
33740;SDS011;20065;48.380;10.892;2023-03-11T00:27:00;3.00;;;1.00;;
33740;SDS011;20065;48.380;10.892;2023-03-11T00:29:46;2.00;;;0.75;;
33740;SDS011;20065;48.380;10.892;2023-03-11T00:32:32;2.13;;;0.80;;
33740;SDS011;20065;48.380;10.892;2023-03-11T00:35:22;3.20;;;0.70;;
33740;SDS011;20065;48.380;10.892;2023-03-11T00:38:14;3.17;;;1.17;;
33740;SDS011;20065;48.380;10.892;2023-03-11T00:41:01;3.15;;;0.90;;
33740;SDS011;20065;48.380;10.892;2023-03-11T00:43:50;2.40;;;1.20;;
33740;SDS011;20065;48.380;10.892;2023-03-11T00:46:36;2.30;;;1.05;;
33740;SDS011;20065;48.380;10.892;2023-03-11T00:49:23;2.85;;;0.90;;
33740;SDS011;20065;48.380;10.892;2023-03-11T00:52:09;2.15;;;0.75;;
33740;SDS011;20065;48.380;10.892;2023-03-11T00:54:57;2.15;;;0.88;;
33740;SDS011;20065;48.380;10.892;2023-03-11T00:57:44;2.13;;;0.70;;
33740;SDS011;20065;48.380;10.892;2023-03-11T01:00:31;1.98;;;0.70;;
33740;SDS011;20065;48.380;10.892;2023-03-11T01:03:17;2.28;;;1.02;;
33740;SDS011;20065;48.380;10.892;2023-03-11T01:06:04;2.25;;;0.95;;
33740;SDS011;20065;48.380;10.892;2023-03-11T01:08:51;1.85;;;0.70;;
33740;SDS011;20065;48.380;10.892;2023-03-11T01:11:37;2.00;;;0.68;;
33740;SDS011;20065;48.380;10.892;2023-03-11T01:14:24;6.22;;;0.93;;
33740;SDS011;20065;48.380;10.892;2023-03-11T01:17:10;2.30;;;0.63;;
33740;SDS011;20065;48.380;10.892;2023-03-11T01:19:56;2.10;;;0.80;;
33740;SDS011;20065;48.380;10.892;2023-03-11T01:22:42;2.00;;;0.80;;
33740;SDS011;20065;48.380;10.892;2023-03-11T01:25:28;2.42;;;1.00;;
33740;SDS011;20065;48.380;10.892;2023-03-11T01:28:16;2.05;;;0.73;;
33740;SDS011;20065;48.380;10.892;2023-03-11T01:31:02;2.40;;;0.90;;
33740;SDS011;20065;48.380;10.892;2023-03-11T01:33:49;2.10;;;0.90;;
33740;SDS011;20065;48.380;10.892;2023-03-11T01:36:35;2.10;;;0.80;;
33740;SDS011;20065;48.380;10.892;2023-03-11T01:39:21;1.88;;;0.65;;
33740;SDS011;20065;48.380;10.892;2023-03-11T01:42:08;2.13;;;0.80;;
33740;SDS011;20065;48.380;10.892;2023-03-11T01:44:54;2.90;;;1.00;;
33740;SDS011;20065;48.380;10.892;2023-03-11T01:47:41;2.20;;;1.00;;
33740;SDS011;20065;48.380;10.892;2023-03-11T01:50:36;3.40;;;1.40;;
33740;SDS011;20065;48.380;10.892;2023-03-11T01:53:25;3.25;;;1.02;;
33740;SDS011;20065;48.380;10.892;2023-03-11T01:56:12;4.57;;;1.38;;
33740;SDS011;20065;48.380;10.892;2023-03-11T01:58:58;2.42;;;1.00;;
33740;SDS011;20065;48.380;10.892;2023-03-11T02:01:47;2.40;;;1.10;;
33740;SDS011;20065;48.380;10.892;2023-03-11T02:04:39;3.50;;;1.20;;
33740;SDS011;20065;48.380;10.892;2023-03-11T02:07:27;2.30;;;1.10;;
33740;SDS011;20065;48.380;10.892;2023-03-11T02:10:14;3.30;;;1.00;;
33740;SDS011;20065;48.380;10.892;2023-03-11T02:13:01;3.33;;;0.75;;
33740;SDS011;20065;48.380;10.892;2023-03-11T02:15:48;3.75;;;1.40;;
33740;SDS011;20065;48.380;10.892;2023-03-11T02:18:36;2.63;;;1.25;;
33740;SDS011;20065;48.380;10.892;2023-03-11T02:21:24;2.53;;;0.98;;
33740;SDS011;20065;48.380;10.892;2023-03-11T02:24:40;1.80;;;0.60;;
33740;SDS011;20065;48.380;10.892;2023-03-11T02:27:38;2.15;;;0.80;;
33740;SDS011;20065;48.380;10.892;2023-03-11T02:30:28;2.45;;;0.90;;
33740;SDS011;20065;48.380;10.892;2023-03-11T02:33:16;4.35;;;1.10;;
33740;SDS011;20065;48.380;10.892;2023-03-11T02:36:05;2.20;;;0.90;;
33740;SDS011;20065;48.380;10.892;2023-03-11T02:39:15;2.70;;;1.20;;
33740;SDS011;20065;48.380;10.892;2023-03-11T02:42:45;1.80;;;0.70;;
33740;SDS011;20065;48.380;10.892;2023-03-11T02:45:17;2.10;;;0.80;;
33740;SDS011;20065;48.380;10.892;2023-03-11T02:48:05;2.53;;;0.95;;
33740;SDS011;20065;48.380;10.892;2023-03-11T02:50:53;2.22;;;1.00;;
33740;SDS011;20065;48.380;10.892;2023-03-11T02:53:41;2.95;;;1.00;;
33740;SDS011;20065;48.380;10.892;2023-03-11T02:56:36;2.80;;;1.10;;
33740;SDS011;20065;48.380;10.892;2023-03-11T02:59:22;2.83;;;1.05;;
33740;SDS011;20065;48.380;10.892;2023-03-11T03:02:08;2.97;;;1.33;;
33740;SDS011;20065;48.380;10.892;2023-03-11T03:04:56;2.90;;;1.20;;
33740;SDS011;20065;48.380;10.892;2023-03-11T03:07:42;2.30;;;0.80;;
33740;SDS011;20065;48.380;10.892;2023-03-11T03:10:29;4.10;;;1.10;;
33740;SDS011;20065;48.380;10.892;2023-03-11T03:13:16;2.28;;;0.80;;
33740;SDS011;20065;48.380;10.892;2023-03-11T03:16:02;2.30;;;0.80;;
33740;SDS011;20065;48.380;10.892;2023-03-11T03:18:48;2.50;;;1.05;;
33740;SDS011;20065;48.380;10.892;2023-03-11T03:21:36;2.40;;;1.02;;
33740;SDS011;20065;48.380;10.892;2023-03-11T03:24:22;2.45;;;0.93;;
33740;SDS011;20065;48.380;10.892;2023-03-11T03:27:08;2.70;;;1.17;;
33740;SDS011;20065;48.380;10.892;2023-03-11T03:29:55;2.65;;;0.90;;
33740;SDS011;20065;48.380;10.892;2023-03-11T03:32:41;2.22;;;0.93;;
33740;SDS011;20065;48.380;10.892;2023-03-11T03:35:30;2.40;;;0.90;;
33740;SDS011;20065;48.380;10.892;2023-03-11T03:38:22;4.13;;;1.35;;
33740;SDS011;20065;48.380;10.892;2023-03-11T03:41:12;3.53;;;1.40;;
33740;SDS011;20065;48.380;10.892;2023-03-11T03:44:00;3.35;;;1.02;;
33740;SDS011;20065;48.380;10.892;2023-03-11T03:46:47;2.97;;;1.05;;
33740;SDS011;20065;48.380;10.892;2023-03-11T03:49:33;2.92;;;1.05;;
33740;SDS011;20065;48.380;10.892;2023-03-11T03:52:19;3.60;;;1.35;;
33740;SDS011;20065;48.380;10.892;2023-03-11T03:55:05;3.33;;;1.00;;
33740;SDS011;20065;48.380;10.892;2023-03-11T03:57:52;5.22;;;1.00;;
33740;SDS011;20065;48.380;10.892;2023-03-11T04:00:41;2.20;;;1.00;;
33740;SDS011;20065;48.380;10.892;2023-03-11T04:03:27;2.95;;;1.27;;
33740;SDS011;20065;48.380;10.892;2023-03-11T04:06:20;2.40;;;1.10;;
33740;SDS011;20065;48.380;10.892;2023-03-11T04:09:14;2.38;;;1.23;;
33740;SDS011;20065;48.380;10.892;2023-03-11T04:12:00;5.32;;;1.17;;
33740;SDS011;20065;48.380;10.892;2023-03-11T04:14:47;2.75;;;1.27;;
33740;SDS011;20065;48.380;10.892;2023-03-11T04:17:33;3.40;;;1.40;;
33740;SDS011;20065;48.380;10.892;2023-03-11T04:20:20;2.40;;;1.10;;
33740;SDS011;20065;48.380;10.892;2023-03-11T04:23:09;3.65;;;1.20;;
33740;SDS011;20065;48.380;10.892;2023-03-11T04:25:57;2.35;;;0.77;;
33740;SDS011;20065;48.380;10.892;2023-03-11T04:28:46;5.05;;;1.20;;
33740;SDS011;20065;48.380;10.892;2023-03-11T04:31:33;5.15;;;1.10;;
33740;SDS011;20065;48.380;10.892;2023-03-11T04:34:22;2.40;;;0.70;;
33740;SDS011;20065;48.380;10.892;2023-03-11T04:37:09;2.00;;;0.80;;
33740;SDS011;20065;48.380;10.892;2023-03-11T04:39:55;2.50;;;1.00;;
33740;SDS011;20065;48.380;10.892;2023-03-11T04:42:42;2.03;;;0.90;;
33740;SDS011;20065;48.380;10.892;2023-03-11T04:45:29;2.20;;;0.75;;
33740;SDS011;20065;48.380;10.892;2023-03-11T04:48:16;2.30;;;0.80;;
33740;SDS011;20065;48.380;10.892;2023-03-11T04:51:03;3.08;;;0.70;;
33740;SDS011;20065;48.380;10.892;2023-03-11T04:53:49;3.15;;;0.82;;
33740;SDS011;20065;48.380;10.892;2023-03-11T04:56:36;2.28;;;0.80;;
33740;SDS011;20065;48.380;10.892;2023-03-11T04:59:23;2.63;;;0.75;;
33740;SDS011;20065;48.380;10.892;2023-03-11T05:02:10;2.67;;;1.05;;
33740;SDS011;20065;48.380;10.892;2023-03-11T05:04:57;4.10;;;0.93;;
33740;SDS011;20065;48.380;10.892;2023-03-11T05:07:43;2.20;;;0.70;;
33740;SDS011;20065;48.380;10.892;2023-03-11T05:10:31;3.92;;;1.00;;
33740;SDS011;20065;48.380;10.892;2023-03-11T05:13:20;4.10;;;1.38;;
33740;SDS011;20065;48.380;10.892;2023-03-11T05:16:07;4.22;;;1.35;;
33740;SDS011;20065;48.380;10.892;2023-03-11T05:18:53;3.58;;;1.15;;
33740;SDS011;20065;48.380;10.892;2023-03-11T05:21:39;4.85;;;1.65;;
33740;SDS011;20065;48.380;10.892;2023-03-11T05:24:25;3.30;;;1.20;;
33740;SDS011;20065;48.380;10.892;2023-03-11T05:27:13;5.82;;;1.65;;
33740;SDS011;20065;48.380;10.892;2023-03-11T05:30:04;3.75;;;1.60;;
33740;SDS011;20065;48.380;10.892;2023-03-11T05:32:53;4.07;;;1.10;;
33740;SDS011;20065;48.380;10.892;2023-03-11T05:35:41;3.78;;;1.60;;
33740;SDS011;20065;48.380;10.892;2023-03-11T05:38:28;3.15;;;1.40;;
33740;SDS011;20065;48.380;10.892;2023-03-11T05:41:17;4.65;;;1.40;;
33740;SDS011;20065;48.380;10.892;2023-03-11T05:44:03;3.55;;;1.50;;
33740;SDS011;20065;48.380;10.892;2023-03-11T05:46:49;2.72;;;1.20;;
33740;SDS011;20065;48.380;10.892;2023-03-11T05:49:36;4.60;;;1.35;;
33740;SDS011;20065;48.380;10.892;2023-03-11T05:52:22;3.20;;;1.00;;
33740;SDS011;20065;48.380;10.892;2023-03-11T05:55:09;4.25;;;1.50;;
33740;SDS011;20065;48.380;10.892;2023-03-11T05:57:58;6.55;;;1.60;;
33740;SDS011;20065;48.380;10.892;2023-03-11T06:00:44;3.83;;;1.80;;
33740;SDS011;20065;48.380;10.892;2023-03-11T06:03:31;7.05;;;1.40;;
33740;SDS011;20065;48.380;10.892;2023-03-11T06:06:17;3.55;;;1.60;;
33740;SDS011;20065;48.380;10.892;2023-03-11T06:09:03;5.32;;;1.85;;
33740;SDS011;20065;48.380;10.892;2023-03-11T06:11:49;7.20;;;2.00;;
33740;SDS011;20065;48.380;10.892;2023-03-11T06:14:37;5.15;;;2.17;;
33740;SDS011;20065;48.380;10.892;2023-03-11T06:17:24;4.60;;;2.13;;
33740;SDS011;20065;48.380;10.892;2023-03-11T06:20:11;4.28;;;1.40;;
33740;SDS011;20065;48.380;10.892;2023-03-11T06:22:57;3.58;;;1.52;;
33740;SDS011;20065;48.380;10.892;2023-03-11T06:25:53;4.10;;;1.50;;
33740;SDS011;20065;48.380;10.892;2023-03-11T06:28:41;5.10;;;1.30;;
33740;SDS011;20065;48.380;10.892;2023-03-11T06:31:28;5.35;;;1.40;;
33740;SDS011;20065;48.380;10.892;2023-03-11T06:34:22;6.57;;;2.00;;
33740;SDS011;20065;48.380;10.892;2023-03-11T06:37:10;2.75;;;1.45;;
33740;SDS011;20065;48.380;10.892;2023-03-11T06:39:58;4.15;;;1.65;;
33740;SDS011;20065;48.380;10.892;2023-03-11T06:42:45;3.83;;;1.52;;
33740;SDS011;20065;48.380;10.892;2023-03-11T06:45:35;3.42;;;1.35;;
33740;SDS011;20065;48.380;10.892;2023-03-11T06:48:22;3.67;;;1.38;;
33740;SDS011;20065;48.380;10.892;2023-03-11T06:51:11;3.70;;;1.35;;
33740;SDS011;20065;48.380;10.892;2023-03-11T06:53:58;4.05;;;1.60;;
33740;SDS011;20065;48.380;10.892;2023-03-11T06:56:45;4.00;;;1.58;;
33740;SDS011;20065;48.380;10.892;2023-03-11T06:59:32;2.50;;;1.30;;
33740;SDS011;20065;48.380;10.892;2023-03-11T07:02:20;3.15;;;1.40;;
33740;SDS011;20065;48.380;10.892;2023-03-11T07:05:06;4.10;;;1.58;;
33740;SDS011;20065;48.380;10.892;2023-03-11T07:07:53;4.10;;;1.60;;
33740;SDS011;20065;48.380;10.892;2023-03-11T07:10:41;5.50;;;1.25;;
33740;SDS011;20065;48.380;10.892;2023-03-11T07:13:27;3.20;;;1.08;;
33740;SDS011;20065;48.380;10.892;2023-03-11T07:16:17;5.05;;;1.42;;
33740;SDS011;20065;48.380;10.892;2023-03-11T07:19:06;5.22;;;1.70;;
33740;SDS011;20065;48.380;10.892;2023-03-11T07:21:53;4.55;;;1.30;;
33740;SDS011;20065;48.380;10.892;2023-03-11T07:24:39;2.67;;;1.20;;
33740;SDS011;20065;48.380;10.892;2023-03-11T07:27:26;3.28;;;1.17;;
33740;SDS011;20065;48.380;10.892;2023-03-11T07:30:12;5.32;;;1.42;;
33740;SDS011;20065;48.380;10.892;2023-03-11T07:32:59;2.97;;;0.80;;
33740;SDS011;20065;48.380;10.892;2023-03-11T07:35:45;2.90;;;1.00;;
33740;SDS011;20065;48.380;10.892;2023-03-11T07:38:33;4.15;;;1.42;;
33740;SDS011;20065;48.380;10.892;2023-03-11T07:41:20;3.15;;;1.20;;
33740;SDS011;20065;48.380;10.892;2023-03-11T07:44:06;2.95;;;1.08;;
33740;SDS011;20065;48.380;10.892;2023-03-11T07:46:52;3.00;;;1.00;;
33740;SDS011;20065;48.380;10.892;2023-03-11T07:49:38;4.35;;;1.00;;
33740;SDS011;20065;48.380;10.892;2023-03-11T07:52:24;3.58;;;1.00;;
33740;SDS011;20065;48.380;10.892;2023-03-11T07:55:10;4.53;;;0.90;;
33740;SDS011;20065;48.380;10.892;2023-03-11T07:57:57;4.53;;;1.00;;
33740;SDS011;20065;48.380;10.892;2023-03-11T08:00:43;3.65;;;1.15;;
33740;SDS011;20065;48.380;10.892;2023-03-11T08:03:29;3.60;;;0.90;;
33740;SDS011;20065;48.380;10.892;2023-03-11T08:06:16;2.90;;;0.80;;
33740;SDS011;20065;48.380;10.892;2023-03-11T08:09:07;2.58;;;0.95;;
33740;SDS011;20065;48.380;10.892;2023-03-11T08:11:53;4.03;;;1.33;;
33740;SDS011;20065;48.380;10.892;2023-03-11T08:14:39;5.07;;;0.85;;
33740;SDS011;20065;48.380;10.892;2023-03-11T08:17:29;2.40;;;0.85;;
33740;SDS011;20065;48.380;10.892;2023-03-11T08:20:17;2.92;;;0.90;;
33740;SDS011;20065;48.380;10.892;2023-03-11T08:23:03;4.10;;;1.27;;
33740;SDS011;20065;48.380;10.892;2023-03-11T08:25:50;2.85;;;1.13;;
33740;SDS011;20065;48.380;10.892;2023-03-11T08:28:36;6.32;;;1.30;;
33740;SDS011;20065;48.380;10.892;2023-03-11T08:31:23;5.60;;;1.35;;
33740;SDS011;20065;48.380;10.892;2023-03-11T08:34:11;2.85;;;1.00;;
33740;SDS011;20065;48.380;10.892;2023-03-11T08:36:58;6.55;;;1.60;;
33740;SDS011;20065;48.380;10.892;2023-03-11T08:39:45;2.97;;;1.10;;
33740;SDS011;20065;48.380;10.892;2023-03-11T08:42:31;6.47;;;1.23;;
33740;SDS011;20065;48.380;10.892;2023-03-11T08:45:18;7.53;;;1.45;;
33740;SDS011;20065;48.380;10.892;2023-03-11T08:48:04;5.50;;;1.10;;
33740;SDS011;20065;48.380;10.892;2023-03-11T08:50:54;5.55;;;1.00;;
33740;SDS011;20065;48.380;10.892;2023-03-11T08:53:40;2.78;;;0.90;;
33740;SDS011;20065;48.380;10.892;2023-03-11T08:56:27;5.18;;;1.30;;
33740;SDS011;20065;48.380;10.892;2023-03-11T08:59:14;2.40;;;0.85;;
33740;SDS011;20065;48.380;10.892;2023-03-11T09:02:00;2.90;;;1.00;;
33740;SDS011;20065;48.380;10.892;2023-03-11T09:04:46;3.28;;;1.08;;
33740;SDS011;20065;48.380;10.892;2023-03-11T09:07:32;4.18;;;0.80;;
33740;SDS011;20065;48.380;10.892;2023-03-11T09:10:18;4.10;;;1.10;;
33740;SDS011;20065;48.380;10.892;2023-03-11T09:13:04;6.30;;;1.17;;
33740;SDS011;20065;48.380;10.892;2023-03-11T09:15:51;2.65;;;0.98;;
33740;SDS011;20065;48.380;10.892;2023-03-11T09:18:37;2.63;;;0.90;;
33740;SDS011;20065;48.380;10.892;2023-03-11T09:21:23;11.50;;;1.58;;
33740;SDS011;20065;48.380;10.892;2023-03-11T09:24:09;4.32;;;0.95;;
33740;SDS011;20065;48.380;10.892;2023-03-11T09:26:55;2.90;;;1.08;;
33740;SDS011;20065;48.380;10.892;2023-03-11T09:29:41;2.30;;;0.90;;
33740;SDS011;20065;48.380;10.892;2023-03-11T09:32:28;2.92;;;1.10;;
33740;SDS011;20065;48.380;10.892;2023-03-11T09:35:14;2.78;;;1.02;;
33740;SDS011;20065;48.380;10.892;2023-03-11T09:38:00;3.50;;;1.35;;
33740;SDS011;20065;48.380;10.892;2023-03-11T09:41:00;5.32;;;1.40;;
33740;SDS011;20065;48.380;10.892;2023-03-11T09:46:58;3.75;;;1.13;;
33740;SDS011;20065;48.380;10.892;2023-03-11T09:50:12;4.03;;;1.00;;
33740;SDS011;20065;48.380;10.892;2023-03-11T09:53:09;3.92;;;1.38;;
33740;SDS011;20065;48.380;10.892;2023-03-11T09:56:04;2.63;;;1.00;;
33740;SDS011;20065;48.380;10.892;2023-03-11T10:02:18;4.43;;;1.27;;
33740;SDS011;20065;48.380;10.892;2023-03-11T10:05:14;3.15;;;1.27;;
33740;SDS011;20065;48.380;10.892;2023-03-11T10:08:29;4.57;;;1.50;;
33740;SDS011;20065;48.380;10.892;2023-03-11T10:24:00;3.20;;;1.10;;
33740;SDS011;20065;48.380;10.892;2023-03-11T10:27:14;6.85;;;0.98;;
33740;SDS011;20065;48.380;10.892;2023-03-11T10:30:26;4.10;;;0.93;;
33740;SDS011;20065;48.380;10.892;2023-03-11T10:33:28;3.95;;;1.00;;
33740;SDS011;20065;48.380;10.892;2023-03-11T10:36:34;4.57;;;1.20;;
33740;SDS011;20065;48.380;10.892;2023-03-11T10:39:23;2.58;;;0.98;;
33740;SDS011;20065;48.380;10.892;2023-03-11T10:42:12;4.35;;;0.90;;
33740;SDS011;20065;48.380;10.892;2023-03-11T10:45:02;3.42;;;1.17;;
33740;SDS011;20065;48.380;10.892;2023-03-11T10:47:49;2.25;;;0.85;;
33740;SDS011;20065;48.380;10.892;2023-03-11T10:50:35;5.90;;;1.10;;
33740;SDS011;20065;48.380;10.892;2023-03-11T10:53:21;5.68;;;1.50;;
33740;SDS011;20065;48.380;10.892;2023-03-11T10:56:09;3.00;;;1.23;;
33740;SDS011;20065;48.380;10.892;2023-03-11T11:00:10;2.42;;;0.80;;
33740;SDS011;20065;48.380;10.892;2023-03-11T11:02:33;5.45;;;0.90;;
33740;SDS011;20065;48.380;10.892;2023-03-11T11:05:28;5.53;;;1.00;;
33740;SDS011;20065;48.380;10.892;2023-03-11T11:08:17;5.10;;;1.35;;
33740;SDS011;20065;48.380;10.892;2023-03-11T11:11:10;3.38;;;1.38;;
33740;SDS011;20065;48.380;10.892;2023-03-11T11:14:06;4.28;;;0.90;;
33740;SDS011;20065;48.380;10.892;2023-03-11T11:16:53;2.40;;;0.95;;
33740;SDS011;20065;48.380;10.892;2023-03-11T11:19:43;4.28;;;1.02;;
33740;SDS011;20065;48.380;10.892;2023-03-11T11:22:34;3.88;;;1.10;;
33740;SDS011;20065;48.380;10.892;2023-03-11T11:25:30;4.32;;;0.90;;
33740;SDS011;20065;48.380;10.892;2023-03-11T11:28:18;3.17;;;1.10;;
33740;SDS011;20065;48.380;10.892;2023-03-11T11:31:05;2.97;;;1.10;;
33740;SDS011;20065;48.380;10.892;2023-03-11T11:34:22;2.60;;;0.90;;
33740;SDS011;20065;48.380;10.892;2023-03-11T11:37:15;2.40;;;0.73;;
33740;SDS011;20065;48.380;10.892;2023-03-11T11:40:03;2.95;;;0.95;;
33740;SDS011;20065;48.380;10.892;2023-03-11T11:45:54;3.53;;;0.95;;
33740;SDS011;20065;48.380;10.892;2023-03-11T11:51:40;5.65;;;1.00;;
33740;SDS011;20065;48.380;10.892;2023-03-11T11:54:50;2.20;;;0.95;;
33740;SDS011;20065;48.380;10.892;2023-03-11T11:57:47;3.15;;;1.20;;
33740;SDS011;20065;48.380;10.892;2023-03-11T12:01:20;3.22;;;0.90;;
33740;SDS011;20065;48.380;10.892;2023-03-11T12:13:40;3.42;;;1.10;;
33740;SDS011;20065;48.380;10.892;2023-03-11T12:19:35;3.65;;;1.50;;
33740;SDS011;20065;48.380;10.892;2023-03-11T12:25:51;3.20;;;0.93;;
33740;SDS011;20065;48.380;10.892;2023-03-11T12:32:18;6.70;;;1.33;;
33740;SDS011;20065;48.380;10.892;2023-03-11T12:35:18;2.70;;;1.02;;
33740;SDS011;20065;48.380;10.892;2023-03-11T12:38:23;3.55;;;0.90;;
33740;SDS011;20065;48.380;10.892;2023-03-11T12:41:32;3.00;;;1.02;;
33740;SDS011;20065;48.380;10.892;2023-03-11T12:44:28;3.90;;;1.13;;
33740;SDS011;20065;48.380;10.892;2023-03-11T12:53:48;3.35;;;1.00;;
33740;SDS011;20065;48.380;10.892;2023-03-11T12:56:39;4.88;;;1.40;;
33740;SDS011;20065;48.380;10.892;2023-03-11T12:59:35;3.03;;;1.10;;
33740;SDS011;20065;48.380;10.892;2023-03-11T13:09:13;2.90;;;1.00;;
33740;SDS011;20065;48.380;10.892;2023-03-11T13:12:01;3.58;;;1.27;;
33740;SDS011;20065;48.380;10.892;2023-03-11T13:14:47;3.63;;;1.25;;
33740;SDS011;20065;48.380;10.892;2023-03-11T13:20:44;3.35;;;1.15;;
33740;SDS011;20065;48.380;10.892;2023-03-11T13:23:38;4.55;;;1.20;;
33740;SDS011;20065;48.380;10.892;2023-03-11T13:26:28;4.65;;;1.38;;
33740;SDS011;20065;48.380;10.892;2023-03-11T13:35:20;6.88;;;1.20;;
33740;SDS011;20065;48.380;10.892;2023-03-11T13:41:40;3.00;;;1.00;;
33740;SDS011;20065;48.380;10.892;2023-03-11T13:44:30;4.85;;;1.17;;
33740;SDS011;20065;48.380;10.892;2023-03-11T13:47:22;3.55;;;1.10;;
33740;SDS011;20065;48.380;10.892;2023-03-11T13:50:14;3.90;;;1.30;;
33740;SDS011;20065;48.380;10.892;2023-03-11T13:53:21;2.42;;;1.05;;
33740;SDS011;20065;48.380;10.892;2023-03-11T13:56:32;5.65;;;1.20;;
33740;SDS011;20065;48.380;10.892;2023-03-11T13:59:28;4.25;;;1.45;;
33740;SDS011;20065;48.380;10.892;2023-03-11T14:02:18;4.85;;;1.30;;
33740;SDS011;20065;48.380;10.892;2023-03-11T14:05:05;5.60;;;1.30;;
33740;SDS011;20065;48.380;10.892;2023-03-11T14:13:58;3.08;;;1.27;;
33740;SDS011;20065;48.380;10.892;2023-03-11T14:16:46;4.47;;;1.05;;
33740;SDS011;20065;48.380;10.892;2023-03-11T14:19:32;4.53;;;1.70;;
33740;SDS011;20065;48.380;10.892;2023-03-11T14:22:18;3.13;;;1.23;;
33740;SDS011;20065;48.380;10.892;2023-03-11T14:25:08;5.82;;;1.98;;
33740;SDS011;20065;48.380;10.892;2023-03-11T14:28:01;3.13;;;1.35;;
33740;SDS011;20065;48.380;10.892;2023-03-11T14:30:59;5.80;;;1.55;;
33740;SDS011;20065;48.380;10.892;2023-03-11T14:33:55;6.65;;;1.60;;
33740;SDS011;20065;48.380;10.892;2023-03-11T14:36:49;3.45;;;1.30;;
33740;SDS011;20065;48.380;10.892;2023-03-11T14:39:42;2.45;;;1.15;;
33740;SDS011;20065;48.380;10.892;2023-03-11T14:42:33;3.58;;;1.02;;
33740;SDS011;20065;48.380;10.892;2023-03-11T14:45:23;4.47;;;1.42;;
33740;SDS011;20065;48.380;10.892;2023-03-11T14:48:13;4.68;;;1.50;;
33740;SDS011;20065;48.380;10.892;2023-03-11T14:51:07;3.42;;;1.40;;
33740;SDS011;20065;48.380;10.892;2023-03-11T14:54:05;4.85;;;1.35;;
33740;SDS011;20065;48.380;10.892;2023-03-11T15:00:15;4.15;;;1.30;;
33740;SDS011;20065;48.380;10.892;2023-03-11T15:06:16;5.90;;;1.73;;
33740;SDS011;20065;48.380;10.892;2023-03-11T15:09:12;3.45;;;1.10;;
33740;SDS011;20065;48.380;10.892;2023-03-11T15:12:02;3.80;;;1.40;;
33740;SDS011;20065;48.380;10.892;2023-03-11T15:14:49;6.50;;;1.30;;
33740;SDS011;20065;48.380;10.892;2023-03-11T15:17:35;5.05;;;1.55;;
33740;SDS011;20065;48.380;10.892;2023-03-11T15:20:32;3.70;;;1.38;;
33740;SDS011;20065;48.380;10.892;2023-03-11T15:23:20;4.22;;;1.50;;
33740;SDS011;20065;48.380;10.892;2023-03-11T15:26:13;3.88;;;1.60;;
33740;SDS011;20065;48.380;10.892;2023-03-11T15:29:14;3.42;;;1.50;;
33740;SDS011;20065;48.380;10.892;2023-03-11T15:35:17;3.75;;;1.40;;
33740;SDS011;20065;48.380;10.892;2023-03-11T15:38:20;6.20;;;1.50;;
33740;SDS011;20065;48.380;10.892;2023-03-11T15:41:15;5.03;;;1.48;;
33740;SDS011;20065;48.380;10.892;2023-03-11T15:44:01;3.38;;;1.30;;
33740;SDS011;20065;48.380;10.892;2023-03-11T15:46:51;4.60;;;1.55;;
33740;SDS011;20065;48.380;10.892;2023-03-11T15:49:37;5.22;;;1.48;;
33740;SDS011;20065;48.380;10.892;2023-03-11T15:52:24;5.35;;;1.75;;
33740;SDS011;20065;48.380;10.892;2023-03-11T15:55:10;3.42;;;1.38;;
33740;SDS011;20065;48.380;10.892;2023-03-11T15:58:01;4.85;;;1.60;;
33740;SDS011;20065;48.380;10.892;2023-03-11T16:00:51;3.53;;;1.30;;
33740;SDS011;20065;48.380;10.892;2023-03-11T16:03:40;3.13;;;1.20;;
33740;SDS011;20065;48.380;10.892;2023-03-11T16:06:26;4.55;;;1.70;;
33740;SDS011;20065;48.380;10.892;2023-03-11T16:09:12;3.88;;;1.95;;
33740;SDS011;20065;48.380;10.892;2023-03-11T16:12:00;7.20;;;1.63;;
33740;SDS011;20065;48.380;10.892;2023-03-11T16:14:47;5.18;;;1.40;;
33740;SDS011;20065;48.380;10.892;2023-03-11T16:17:34;3.35;;;1.60;;
33740;SDS011;20065;48.380;10.892;2023-03-11T16:20:21;5.90;;;1.50;;
33740;SDS011;20065;48.380;10.892;2023-03-11T16:23:14;4.47;;;1.40;;
33740;SDS011;20065;48.380;10.892;2023-03-11T16:26:03;4.80;;;1.70;;
33740;SDS011;20065;48.380;10.892;2023-03-11T16:28:50;4.85;;;1.35;;
33740;SDS011;20065;48.380;10.892;2023-03-11T16:31:36;3.72;;;1.65;;
33740;SDS011;20065;48.380;10.892;2023-03-11T16:34:24;4.63;;;1.50;;
33740;SDS011;20065;48.380;10.892;2023-03-11T16:37:13;7.13;;;1.70;;
33740;SDS011;20065;48.380;10.892;2023-03-11T16:40:02;3.53;;;1.58;;
33740;SDS011;20065;48.380;10.892;2023-03-11T16:42:50;6.97;;;1.77;;
33740;SDS011;20065;48.380;10.892;2023-03-11T16:45:40;6.10;;;2.42;;
33740;SDS011;20065;48.380;10.892;2023-03-11T16:48:27;5.82;;;1.92;;
33740;SDS011;20065;48.380;10.892;2023-03-11T16:51:15;5.32;;;1.98;;
33740;SDS011;20065;48.380;10.892;2023-03-11T16:54:01;5.90;;;1.90;;
33740;SDS011;20065;48.380;10.892;2023-03-11T16:56:47;5.53;;;2.17;;
33740;SDS011;20065;48.380;10.892;2023-03-11T16:59:33;8.82;;;1.88;;
33740;SDS011;20065;48.380;10.892;2023-03-11T17:02:19;4.40;;;1.80;;
33740;SDS011;20065;48.380;10.892;2023-03-11T17:05:06;5.25;;;2.20;;
33740;SDS011;20065;48.380;10.892;2023-03-11T17:07:53;8.65;;;2.42;;
33740;SDS011;20065;48.380;10.892;2023-03-11T17:10:45;10.30;;;1.90;;
33740;SDS011;20065;48.380;10.892;2023-03-11T17:13:31;3.28;;;1.75;;
33740;SDS011;20065;48.380;10.892;2023-03-11T17:16:19;5.35;;;1.80;;
33740;SDS011;20065;48.380;10.892;2023-03-11T17:19:05;6.70;;;1.98;;
33740;SDS011;20065;48.380;10.892;2023-03-11T17:21:51;6.63;;;2.20;;
33740;SDS011;20065;48.380;10.892;2023-03-11T17:24:40;6.53;;;2.42;;
33740;SDS011;20065;48.380;10.892;2023-03-11T17:27:27;4.55;;;2.25;;
33740;SDS011;20065;48.380;10.892;2023-03-11T17:30:16;4.60;;;2.33;;
33740;SDS011;20065;48.380;10.892;2023-03-11T17:33:05;5.00;;;2.00;;
33740;SDS011;20065;48.380;10.892;2023-03-11T17:36:25;7.45;;;2.47;;
33740;SDS011;20065;48.380;10.892;2023-03-11T17:39:03;6.25;;;2.28;;
33740;SDS011;20065;48.380;10.892;2023-03-11T17:41:52;4.30;;;2.25;;
33740;SDS011;20065;48.380;10.892;2023-03-11T17:44:40;5.60;;;2.28;;
33740;SDS011;20065;48.380;10.892;2023-03-11T17:47:26;7.68;;;2.63;;
33740;SDS011;20065;48.380;10.892;2023-03-11T17:50:12;6.13;;;2.88;;
33740;SDS011;20065;48.380;10.892;2023-03-11T17:52:59;7.63;;;3.30;;
33740;SDS011;20065;48.380;10.892;2023-03-11T17:55:45;5.35;;;2.35;;
33740;SDS011;20065;48.380;10.892;2023-03-11T17:58:37;8.02;;;2.92;;
33740;SDS011;20065;48.380;10.892;2023-03-11T18:01:25;4.93;;;2.35;;
33740;SDS011;20065;48.380;10.892;2023-03-11T18:04:15;7.05;;;2.83;;
33740;SDS011;20065;48.380;10.892;2023-03-11T18:07:01;6.85;;;3.15;;
33740;SDS011;20065;48.380;10.892;2023-03-11T18:09:49;8.68;;;2.30;;
33740;SDS011;20065;48.380;10.892;2023-03-11T18:12:37;8.85;;;3.25;;